Time;durP1;ratioP1;P1;durP2;ratioP2;P2;SDS_P1;SDS_P2;PMS_P1;PMS_P2;Temp;Humidity;BMP_temperature;BMP_pressure;BME280_temperature;BME280_humidity;BME280_pressure;Samples;Min_cycle;Max_cycle;Signal;HPM_P1;HPM_P2
2022/01/20 00:02:01;;;;;;;0.20;0.00;;;;;;;;;;5042077;28;20281;-69
2022/01/20 00:04:40;;;;;;;0.00;0.00;;;;;;;;;;5042306;28;20211;-69
2022/01/20 00:26:29;;;;;;;0.00;0.00;;;;;;;;;;5041395;28;20199;-70
2022/01/20 00:29:00;;;;;;;0.00;0.00;;;;;;;;;;5038818;28;20700;-69
2022/01/20 00:31:44;;;;;;;0.00;0.00;;;;;;;;;;5041397;28;20204;-70
2022/01/20 00:34:15;;;;;;;0.00;0.00;;;;;;;;;;5040982;28;20204;-69
2022/01/20 00:39:30;;;;;;;0.00;0.00;;;;;;;;;;5038481;28;20221;-70
2022/01/20 00:41:58;;;;;;;0.00;0.00;;;;;;;;;;5038979;28;20704;-69
2022/01/20 00:44:25;;;;;;;0.00;0.00;;;;;;;;;;5040493;28;20200;-68
2022/01/20 00:46:53;;;;;;;0.00;0.00;;;;;;;;;;5039008;28;20204;-69
2022/01/20 00:49:20;;;;;;;0.00;0.00;;;;;;;;;;5039247;28;20246;-70
2022/01/20 00:51:49;;;;;;;0.00;0.00;;;;;;;;;;5040379;28;20214;-69
2022/01/20 00:54:16;;;;;;;0.00;0.00;;;;;;;;;;5038008;28;20216;-68
2022/01/20 00:56:44;;;;;;;0.00;0.00;;;;;;;;;;5041408;28;20203;-68
2022/01/20 00:59:11;;;;;;;0.00;0.00;;;;;;;;;;5041644;28;20200;-69
2022/01/20 01:01:39;;;;;;;0.00;0.00;;;;;;;;;;5039814;28;20195;-69
2022/01/20 01:04:07;;;;;;;0.00;0.00;;;;;;;;;;5039336;28;20200;-68
2022/01/20 01:06:51;;;;;;;0.00;0.00;;;;;;;;;;5039016;28;20228;-69
2022/01/20 01:09:20;;;;;;;0.00;0.00;;;;;;;;;;5038525;28;20250;-69
2022/01/20 01:11:49;;;;;;;0.00;0.00;;;;;;;;;;5041442;28;20206;-69
2022/01/20 01:14:18;;;;;;;0.00;0.00;;;;;;;;;;5039097;28;20203;-69
2022/01/20 01:22:22;;;;;;;0.00;0.00;;;;;;;;;;5040551;28;20210;-70
2022/01/20 01:24:53;;;;;;;1.10;0.17;;;;;;;;;;5039707;28;20580;-68
2022/01/20 01:27:20;;;;;;;0.00;0.00;;;;;;;;;;5038700;28;21014;-69
2022/01/20 01:30:05;;;;;;;0.00;0.00;;;;;;;;;;5038562;28;20223;-69
2022/01/20 01:32:42;;;;;;;0.00;0.00;;;;;;;;;;5038955;28;20290;-69
2022/01/20 01:35:11;;;;;;;0.00;0.00;;;;;;;;;;5039190;28;20206;-69
2022/01/20 01:38:25;;;;;;;0.00;0.00;;;;;;;;;;5039940;28;20291;-68
2022/01/20 01:40:37;;;;;;;0.00;0.00;;;;;;;;;;5038092;28;20210;-68
2022/01/20 01:43:13;;;;;;;0.00;0.00;;;;;;;;;;5039552;28;20992;-68
2022/01/20 01:45:41;;;;;;;0.00;0.00;;;;;;;;;;5039089;28;20204;-69
2022/01/20 01:48:09;;;;;;;0.00;0.00;;;;;;;;;;5037611;28;20223;-69
2022/01/20 01:50:36;;;;;;;0.00;0.00;;;;;;;;;;5035977;28;20200;-68
2022/01/20 01:53:05;;;;;;;0.00;0.00;;;;;;;;;;5036272;28;20207;-69
2022/01/20 01:55:33;;;;;;;0.00;0.00;;;;;;;;;;5038107;28;20196;-69
2022/01/20 01:58:02;;;;;;;0.00;0.00;;;;;;;;;;5037940;28;20691;-69
2022/01/20 02:00:30;;;;;;;1.93;0.50;;;;;;;;;;5038638;28;20223;-69
2022/01/20 02:02:58;;;;;;;0.00;0.00;;;;;;;;;;5038764;28;20200;-69
2022/01/20 02:05:25;;;;;;;0.17;0.10;;;;;;;;;;5039163;28;21173;-69
2022/01/20 02:18:54;;;;;;;1.83;1.73;;;;;;;;;;5038067;28;20246;-68
2022/01/20 02:21:23;;;;;;;0.00;0.00;;;;;;;;;;5036913;28;20204;-70
2022/01/20 02:23:51;;;;;;;0.00;0.00;;;;;;;;;;5037598;28;20200;-69
2022/01/20 02:26:18;;;;;;;0.00;0.00;;;;;;;;;;5037374;28;20187;-70
2022/01/20 02:28:47;;;;;;;0.00;0.00;;;;;;;;;;5038401;28;20708;-69
2022/01/20 02:31:15;;;;;;;0.00;0.00;;;;;;;;;;5038802;28;20195;-68
2022/01/20 02:33:42;;;;;;;0.00;0.00;;;;;;;;;;5038088;28;20198;-69
2022/01/20 02:36:14;;;;;;;0.00;0.00;;;;;;;;;;5037812;28;20211;-69
2022/01/20 02:38:46;;;;;;;0.00;0.00;;;;;;;;;;5037096;28;20660;-68
2022/01/20 02:46:44;;;;;;;0.00;0.00;;;;;;;;;;5038620;28;20256;-68
2022/01/20 02:49:14;;;;;;;0.00;0.00;;;;;;;;;;5038141;28;20246;-68
2022/01/20 02:51:47;;;;;;;0.00;0.00;;;;;;;;;;5035840;28;20199;-68
2022/01/20 02:54:16;;;;;;;0.00;0.00;;;;;;;;;;5035917;28;20273;-69
2022/01/20 02:56:44;;;;;;;0.00;0.00;;;;;;;;;;5036580;28;20199;-69
2022/01/20 02:59:12;;;;;;;0.00;0.00;;;;;;;;;;5039938;28;20195;-68
2022/01/20 03:01:39;;;;;;;0.00;0.00;;;;;;;;;;5047724;28;20199;-68
2022/01/20 03:04:07;;;;;;;0.00;0.00;;;;;;;;;;5048567;28;20690;-69
2022/01/20 03:06:34;;;;;;;0.00;0.00;;;;;;;;;;5045817;28;20649;-69
2022/01/20 03:09:01;;;;;;;0.00;0.00;;;;;;;;;;5031897;28;20224;-69
2022/01/20 03:11:30;;;;;;;0.00;0.00;;;;;;;;;;5033364;28;20196;-68
2022/01/20 03:13:58;;;;;;;0.00;0.00;;;;;;;;;;5048116;28;20206;-69
2022/01/20 03:16:25;;;;;;;0.00;0.00;;;;;;;;;;5049123;28;20200;-69
2022/01/20 03:18:52;;;;;;;0.00;0.00;;;;;;;;;;5051331;28;20658;-69
2022/01/20 03:21:20;;;;;;;0.00;0.00;;;;;;;;;;5043607;28;20206;-68
2022/01/20 03:23:47;;;;;;;0.00;0.00;;;;;;;;;;5032468;28;20199;-69
2022/01/20 03:26:14;;;;;;;0.00;0.00;;;;;;;;;;5053805;28;20208;-69
2022/01/20 03:28:43;;;;;;;0.20;0.20;;;;;;;;;;5028403;28;20712;-68
2022/01/20 03:31:11;;;;;;;0.00;0.00;;;;;;;;;;5038019;28;20650;-69
2022/01/20 03:33:38;;;;;;;0.70;0.10;;;;;;;;;;5032115;28;20207;-69
2022/01/20 03:36:06;;;;;;;0.00;0.00;;;;;;;;;;5048456;28;20199;-69
2022/01/20 03:38:33;;;;;;;0.00;0.00;;;;;;;;;;5048371;28;20204;-69
2022/01/20 03:41:01;;;;;;;0.33;0.33;;;;;;;;;;5042622;28;20195;-69
2022/01/20 03:43:28;;;;;;;0.30;0.30;;;;;;;;;;5046573;28;20204;-68
2022/01/20 03:45:59;;;;;;;0.23;0.20;;;;;;;;;;5035807;28;20215;-67
2022/01/20 03:48:28;;;;;;;0.00;0.00;;;;;;;;;;5044842;28;20206;-68
2022/01/20 03:51:02;;;;;;;1.70;0.40;;;;;;;;;;5048394;28;20226;-68
2022/01/20 03:53:31;;;;;;;0.00;0.00;;;;;;;;;;5047572;28;21304;-69
2022/01/20 03:55:58;;;;;;;0.00;0.00;;;;;;;;;;5038138;28;20204;-69
2022/01/20 03:58:26;;;;;;;0.00;0.00;;;;;;;;;;5032068;28;20535;-68
2022/01/20 04:00:53;;;;;;;0.00;0.00;;;;;;;;;;5047846;28;20207;-69
2022/01/20 04:03:22;;;;;;;0.00;0.00;;;;;;;;;;5049270;28;20312;-69
2022/01/20 04:05:57;;;;;;;5.13;0.63;;;;;;;;;;5051762;28;20206;-68
2022/01/20 04:08:29;;;;;;;0.00;0.00;;;;;;;;;;5051699;28;20195;-68
2022/01/20 04:10:57;;;;;;;0.10;0.10;;;;;;;;;;5043389;28;20199;-67
2022/01/20 04:13:28;;;;;;;0.00;0.00;;;;;;;;;;5039355;28;20211;-67
2022/01/20 04:15:55;;;;;;;0.73;0.63;;;;;;;;;;5051783;28;20184;-68
2022/01/20 04:18:26;;;;;;;0.20;0.20;;;;;;;;;;5042671;28;20201;-68
2022/01/20 04:20:54;;;;;;;0.00;0.00;;;;;;;;;;5042770;28;20223;-67
2022/01/20 04:23:21;;;;;;;0.00;0.00;;;;;;;;;;5040637;28;20216;-67
2022/01/20 04:25:49;;;;;;;0.00;0.00;;;;;;;;;;5038908;28;20573;-67
2022/01/20 04:28:16;;;;;;;0.00;0.00;;;;;;;;;;5046565;28;20326;-68
2022/01/20 04:30:44;;;;;;;1.40;0.30;;;;;;;;;;5051018;28;20234;-67
2022/01/20 04:33:11;;;;;;;0.20;0.20;;;;;;;;;;5050440;28;20200;-68
2022/01/20 04:35:40;;;;;;;0.00;0.00;;;;;;;;;;5041959;28;20196;-68
2022/01/20 04:38:08;;;;;;;0.00;0.00;;;;;;;;;;5031436;28;20200;-68
2022/01/20 04:40:40;;;;;;;0.00;0.00;;;;;;;;;;5031435;28;20202;-69
2022/01/20 04:43:08;;;;;;;0.00;0.00;;;;;;;;;;5032558;28;20583;-67
2022/01/20 04:45:40;;;;;;;0.30;0.23;;;;;;;;;;5051314;28;20488;-68
2022/01/20 04:48:21;;;;;;;0.03;0.03;;;;;;;;;;5042223;28;20680;-68
2022/01/20 04:59:05;;;;;;;4.47;0.47;;;;;;;;;;5046867;28;20234;-67
2022/01/20 05:01:32;;;;;;;2.80;0.43;;;;;;;;;;5050025;28;20207;-68
2022/01/20 05:04:01;;;;;;;0.30;0.27;;;;;;;;;;5036623;28;20212;-68
2022/01/20 05:06:30;;;;;;;0.83;0.10;;;;;;;;;;5038346;28;20206;-67
2022/01/20 05:08:58;;;;;;;0.00;0.00;;;;;;;;;;5037548;28;20251;-70
2022/01/20 05:11:25;;;;;;;0.00;0.00;;;;;;;;;;5037840;28;20734;-68
2022/01/20 05:13:52;;;;;;;0.00;0.00;;;;;;;;;;5038454;28;20652;-68
2022/01/20 05:16:23;;;;;;;0.87;0.20;;;;;;;;;;5039575;28;20200;-68
2022/01/20 05:18:51;;;;;;;0.00;0.00;;;;;;;;;;5038792;28;20668;-68
2022/01/20 05:21:18;;;;;;;0.30;0.30;;;;;;;;;;5038885;28;20216;-69
2022/01/20 05:23:47;;;;;;;0.00;0.00;;;;;;;;;;5036815;28;20206;-69
2022/01/20 05:26:14;;;;;;;0.00;0.00;;;;;;;;;;5039075;28;20704;-68
2022/01/20 05:28:42;;;;;;;0.00;0.00;;;;;;;;;;5039709;28;20778;-68
2022/01/20 05:31:09;;;;;;;0.00;0.00;;;;;;;;;;5044872;28;20219;-69
2022/01/20 05:33:37;;;;;;;0.00;0.00;;;;;;;;;;5048848;28;20277;-69
2022/01/20 05:36:04;;;;;;;0.00;0.00;;;;;;;;;;5050176;28;20579;-69
2022/01/20 05:38:31;;;;;;;5.47;1.10;;;;;;;;;;5038638;28;20200;-68
2022/01/20 05:41:00;;;;;;;0.40;0.20;;;;;;;;;;5036757;28;20195;-68
2022/01/20 05:43:27;;;;;;;14.30;1.90;;;;;;;;;;5037839;28;20196;-69
2022/01/20 05:45:55;;;;;;;0.00;0.00;;;;;;;;;;5036809;28;20206;-69
2022/01/20 05:48:32;;;;;;;5.67;1.30;;;;;;;;;;5038779;28;20203;-70
2022/01/20 05:51:00;;;;;;;0.00;0.00;;;;;;;;;;5039215;28;20229;-68
2022/01/20 05:53:28;;;;;;;0.00;0.00;;;;;;;;;;5036056;28;20512;-70
2022/01/20 05:55:55;;;;;;;0.43;0.10;;;;;;;;;;5037872;28;20195;-70
2022/01/20 05:58:24;;;;;;;0.00;0.00;;;;;;;;;;5038256;28;20192;-69
2022/01/20 06:00:52;;;;;;;0.00;0.00;;;;;;;;;;5039927;28;20585;-69
2022/01/20 06:03:37;;;;;;;0.00;0.00;;;;;;;;;;5037297;28;20213;-69
2022/01/20 06:06:05;;;;;;;0.27;0.07;;;;;;;;;;5037925;28;20191;-68
2022/01/20 06:08:32;;;;;;;0.00;0.00;;;;;;;;;;5036702;28;20192;-67
2022/01/20 06:11:00;;;;;;;0.17;0.17;;;;;;;;;;5035780;28;20238;-68
2022/01/20 06:13:29;;;;;;;2.40;0.30;;;;;;;;;;5029817;28;20688;-68
2022/01/20 06:15:56;;;;;;;0.00;0.00;;;;;;;;;;5039384;28;20192;-69
2022/01/20 06:18:24;;;;;;;0.00;0.00;;;;;;;;;;5048383;28;20196;-69
2022/01/20 06:20:51;;;;;;;1.60;0.30;;;;;;;;;;5068697;28;20227;-70
2022/01/20 06:23:19;;;;;;;0.00;0.00;;;;;;;;;;5069522;28;20209;-69
2022/01/20 06:25:47;;;;;;;0.00;0.00;;;;;;;;;;5039856;28;20207;-69
2022/01/20 06:28:15;;;;;;;0.30;0.20;;;;;;;;;;5048543;28;20661;-68
2022/01/20 06:30:43;;;;;;;0.10;0.00;;;;;;;;;;5048898;28;20227;-68
2022/01/20 06:33:11;;;;;;;0.00;0.00;;;;;;;;;;5037507;28;20222;-69
2022/01/20 06:35:38;;;;;;;0.40;0.40;;;;;;;;;;5029097;28;20196;-69
2022/01/20 06:38:06;;;;;;;0.10;0.10;;;;;;;;;;5031069;28;20199;-68
2022/01/20 06:40:34;;;;;;;0.00;0.00;;;;;;;;;;5038845;28;20201;-68
2022/01/20 06:43:02;;;;;;;0.53;0.53;;;;;;;;;;5031535;28;20204;-68
2022/01/20 06:45:30;;;;;;;0.13;0.13;;;;;;;;;;5040612;28;20712;-69
2022/01/20 06:47:58;;;;;;;0.83;0.83;;;;;;;;;;5037652;28;20184;-67
2022/01/20 06:50:26;;;;;;;1.10;0.30;;;;;;;;;;5040653;28;20231;-69
2022/01/20 06:52:54;;;;;;;2.00;0.57;;;;;;;;;;5035469;28;20266;-69
2022/01/20 06:55:21;;;;;;;0.00;0.00;;;;;;;;;;5043711;28;20195;-69
2022/01/20 06:57:48;;;;;;;0.00;0.00;;;;;;;;;;5045239;28;20200;-68
2022/01/20 07:00:17;;;;;;;0.33;0.33;;;;;;;;;;5029696;28;20202;-68
2022/01/20 07:02:46;;;;;;;0.23;0.23;;;;;;;;;;5038979;28;20203;-68
2022/01/20 07:05:16;;;;;;;0.33;0.27;;;;;;;;;;5038561;28;20203;-68
2022/01/20 07:07:44;;;;;;;0.00;0.00;;;;;;;;;;5034800;28;20206;-69
2022/01/20 07:10:12;;;;;;;0.00;0.00;;;;;;;;;;5030759;28;20705;-70
2022/01/20 07:12:40;;;;;;;0.33;0.33;;;;;;;;;;5029193;28;20657;-69
2022/01/20 07:15:08;;;;;;;0.00;0.00;;;;;;;;;;5047016;28;20202;-68
2022/01/20 07:17:35;;;;;;;0.40;0.10;;;;;;;;;;5037655;28;20188;-68
2022/01/20 07:20:02;;;;;;;0.00;0.00;;;;;;;;;;5061526;28;20716;-67
2022/01/20 07:22:31;;;;;;;0.40;0.20;;;;;;;;;;5047975;28;20206;-68
2022/01/20 07:24:59;;;;;;;0.00;0.00;;;;;;;;;;5039839;28;20572;-68
2022/01/20 07:27:27;;;;;;;0.00;0.00;;;;;;;;;;5028453;28;20207;-68
2022/01/20 07:29:55;;;;;;;0.00;0.00;;;;;;;;;;5040539;28;20695;-67
2022/01/20 07:32:22;;;;;;;0.30;0.00;;;;;;;;;;5038596;28;20214;-69
2022/01/20 07:34:50;;;;;;;0.00;0.00;;;;;;;;;;5042688;28;20218;-68
2022/01/20 07:37:17;;;;;;;0.00;0.00;;;;;;;;;;5036135;28;20677;-68
2022/01/20 07:39:46;;;;;;;0.00;0.00;;;;;;;;;;5042769;28;20203;-69
2022/01/20 07:42:13;;;;;;;0.00;0.00;;;;;;;;;;5047993;28;20207;-68
2022/01/20 07:44:40;;;;;;;0.00;0.00;;;;;;;;;;5045420;28;20223;-69
2022/01/20 07:47:08;;;;;;;0.00;0.00;;;;;;;;;;5039874;28;20250;-68
2022/01/20 07:49:35;;;;;;;0.00;0.00;;;;;;;;;;5047474;28;20207;-69
2022/01/20 07:52:02;;;;;;;0.20;0.20;;;;;;;;;;5050205;28;20215;-69
2022/01/20 07:54:30;;;;;;;1.30;0.87;;;;;;;;;;5044909;28;20676;-69
2022/01/20 07:56:58;;;;;;;1.83;0.73;;;;;;;;;;5040838;28;20572;-67
2022/01/20 07:59:26;;;;;;;1.80;0.43;;;;;;;;;;5052116;28;20533;-70
2022/01/20 08:01:53;;;;;;;0.00;0.00;;;;;;;;;;5051768;28;20206;-64
2022/01/20 08:04:21;;;;;;;0.93;0.00;;;;;;;;;;5044042;28;20195;-68
2022/01/20 08:06:48;;;;;;;7.23;0.20;;;;;;;;;;5046724;28;20204;-68
2022/01/20 08:09:15;;;;;;;0.63;0.37;;;;;;;;;;5045725;28;20214;-67
2022/01/20 08:11:43;;;;;;;0.00;0.00;;;;;;;;;;5042887;28;20250;-68
2022/01/20 08:14:11;;;;;;;0.40;0.40;;;;;;;;;;5044288;28;20215;-68
2022/01/20 08:16:39;;;;;;;0.00;0.00;;;;;;;;;;5038412;28;20204;-68
2022/01/20 08:19:06;;;;;;;0.03;0.03;;;;;;;;;;5055032;28;20621;-64
2022/01/20 08:21:33;;;;;;;0.00;0.00;;;;;;;;;;5040162;28;20200;-67
2022/01/20 08:24:01;;;;;;;0.00;0.00;;;;;;;;;;5034113;28;20654;-67
2022/01/20 08:26:28;;;;;;;0.00;0.00;;;;;;;;;;5028102;28;20645;-68
2022/01/20 08:28:55;;;;;;;0.00;0.00;;;;;;;;;;5011441;28;20692;-69
2022/01/20 08:31:25;;;;;;;0.17;0.17;;;;;;;;;;5010849;28;20321;-68
2022/01/20 08:33:52;;;;;;;0.00;0.00;;;;;;;;;;5008051;28;20204;-68
2022/01/20 08:36:20;;;;;;;0.00;0.00;;;;;;;;;;5015709;28;20226;-67
2022/01/20 08:38:47;;;;;;;0.00;0.00;;;;;;;;;;5012148;28;20210;-66
2022/01/20 08:41:14;;;;;;;0.00;0.00;;;;;;;;;;5012110;28;20274;-69
2022/01/20 08:43:42;;;;;;;0.00;0.00;;;;;;;;;;5010129;28;21245;-68
2022/01/20 08:46:11;;;;;;;19.23;1.07;;;;;;;;;;5007400;28;20246;-68
2022/01/20 08:48:42;;;;;;;0.00;0.00;;;;;;;;;;5009636;28;20222;-67
2022/01/20 08:51:10;;;;;;;0.40;0.40;;;;;;;;;;5009711;28;20733;-68
2022/01/20 08:53:37;;;;;;;2.00;1.03;;;;;;;;;;5003767;28;20215;-69
2022/01/20 08:56:05;;;;;;;0.00;0.00;;;;;;;;;;5008456;28;20208;-68
2022/01/20 08:58:32;;;;;;;0.67;0.10;;;;;;;;;;5015055;28;20188;-68
2022/01/20 09:01:02;;;;;;;3.87;0.83;;;;;;;;;;5006052;28;20257;-68
2022/01/20 09:03:32;;;;;;;0.00;0.00;;;;;;;;;;5007422;28;20238;-68
2022/01/20 09:06:02;;;;;;;0.00;0.00;;;;;;;;;;5026878;28;20578;-68
2022/01/20 09:08:29;;;;;;;0.00;0.00;;;;;;;;;;5024398;28;20287;-68
2022/01/20 09:10:56;;;;;;;3.77;0.73;;;;;;;;;;5021846;28;20228;-68
2022/01/20 09:16:09;;;;;;;2.03;0.40;;;;;;;;;;5014446;28;21311;-69
2022/01/20 09:18:36;;;;;;;0.27;0.27;;;;;;;;;;5008145;28;20203;-67
2022/01/20 09:21:05;;;;;;;0.30;0.30;;;;;;;;;;5006353;28;20872;-68
2022/01/20 09:23:32;;;;;;;2.07;0.67;;;;;;;;;;5005488;28;20231;-69
2022/01/20 09:25:59;;;;;;;0.00;0.00;;;;;;;;;;5005854;28;20218;-70
2022/01/20 09:28:27;;;;;;;5.57;0.60;;;;;;;;;;5006964;28;20207;-69
2022/01/20 09:30:58;;;;;;;0.30;0.10;;;;;;;;;;5011127;28;20278;-68
2022/01/20 09:33:27;;;;;;;0.13;0.07;;;;;;;;;;5007902;28;20199;-69
2022/01/20 09:35:55;;;;;;;7.00;0.17;;;;;;;;;;5009866;28;21681;-69
2022/01/20 09:38:23;;;;;;;0.60;0.10;;;;;;;;;;5013444;28;20295;-69
2022/01/20 09:40:51;;;;;;;0.00;0.00;;;;;;;;;;5004709;28;20234;-69
2022/01/20 09:43:18;;;;;;;0.00;0.00;;;;;;;;;;5007694;28;20277;-69
2022/01/20 09:45:47;;;;;;;0.07;0.07;;;;;;;;;;5006018;28;20195;-69
2022/01/20 09:48:15;;;;;;;0.00;0.00;;;;;;;;;;5016156;28;20293;-68
2022/01/20 09:50:42;;;;;;;0.37;0.00;;;;;;;;;;5007906;28;20231;-68
2022/01/20 09:53:09;;;;;;;0.00;0.00;;;;;;;;;;5006154;28;22383;-68
2022/01/20 09:55:38;;;;;;;0.50;0.03;;;;;;;;;;5008624;28;20211;-67
2022/01/20 09:58:06;;;;;;;0.37;0.27;;;;;;;;;;5009177;28;20254;-69
2022/01/20 10:00:34;;;;;;;0.00;0.00;;;;;;;;;;5010815;28;21839;-70
2022/01/20 10:03:05;;;;;;;0.73;0.30;;;;;;;;;;5046403;28;20775;-69
2022/01/20 10:05:34;;;;;;;0.00;0.00;;;;;;;;;;5025575;28;20472;-69
2022/01/20 10:08:03;;;;;;;0.30;0.30;;;;;;;;;;5026951;28;20203;-70
2022/01/20 10:10:39;;;;;;;0.67;0.30;;;;;;;;;;5024427;28;20231;-69
2022/01/20 10:13:07;;;;;;;0.10;0.10;;;;;;;;;;5022514;28;20208;-69
2022/01/20 10:15:34;;;;;;;0.03;0.03;;;;;;;;;;5022260;28;20200;-68
2022/01/20 10:18:05;;;;;;;0.00;0.00;;;;;;;;;;5022109;28;20226;-69
2022/01/20 10:20:33;;;;;;;5.53;1.33;;;;;;;;;;5026698;28;20228;-68
2022/01/20 10:23:02;;;;;;;2.60;0.50;;;;;;;;;;5023466;28;21091;-68
2022/01/20 10:25:35;;;;;;;1.70;0.63;;;;;;;;;;5023222;28;20791;-68
2022/01/20 10:28:04;;;;;;;0.00;0.00;;;;;;;;;;5021177;28;20215;-68
2022/01/20 10:30:34;;;;;;;8.40;0.97;;;;;;;;;;5028951;28;20633;-69
2022/01/20 10:33:02;;;;;;;0.60;0.50;;;;;;;;;;5032423;28;20210;-69
2022/01/20 10:35:33;;;;;;;0.00;0.00;;;;;;;;;;5037014;28;20957;-68
2022/01/20 10:38:10;;;;;;;0.57;0.57;;;;;;;;;;5034595;28;20669;-70
2022/01/20 10:40:46;;;;;;;0.03;0.03;;;;;;;;;;5036762;28;20199;-69
2022/01/20 10:43:21;;;;;;;0.00;0.00;;;;;;;;;;5035898;28;20583;-70
2022/01/20 10:45:49;;;;;;;9.40;0.73;;;;;;;;;;5028433;28;20188;-71
2022/01/20 10:48:19;;;;;;;0.00;0.00;;;;;;;;;;5043803;28;20194;-70
2022/01/20 10:50:46;;;;;;;0.00;0.00;;;;;;;;;;5035875;28;20704;-70
2022/01/20 10:53:20;;;;;;;0.00;0.00;;;;;;;;;;5038731;28;20195;-71
2022/01/20 10:55:48;;;;;;;0.00;0.00;;;;;;;;;;5038432;28;20207;-70
2022/01/20 10:58:16;;;;;;;2.53;0.10;;;;;;;;;;5037196;28;20199;-70
2022/01/20 11:00:47;;;;;;;0.00;0.00;;;;;;;;;;5036198;28;20215;-69
2022/01/20 11:03:15;;;;;;;1.93;1.83;;;;;;;;;;5035941;28;20214;-69
2022/01/20 11:05:44;;;;;;;0.83;0.40;;;;;;;;;;5039239;28;20187;-69
2022/01/20 11:08:12;;;;;;;1.13;0.40;;;;;;;;;;5037885;28;20613;-69
2022/01/20 11:10:41;;;;;;;0.10;0.10;;;;;;;;;;5041152;28;20908;-68
2022/01/20 11:13:08;;;;;;;0.30;0.27;;;;;;;;;;5042095;28;20191;-70
2022/01/20 11:15:36;;;;;;;0.00;0.00;;;;;;;;;;5044026;28;20222;-69
2022/01/20 11:18:05;;;;;;;0.30;0.30;;;;;;;;;;5044508;28;20223;-69
2022/01/20 11:20:41;;;;;;;1.17;0.37;;;;;;;;;;5067089;28;20703;-70
2022/01/20 11:23:09;;;;;;;0.00;0.00;;;;;;;;;;5049462;28;20206;-70
2022/01/20 11:25:38;;;;;;;1.80;0.10;;;;;;;;;;5039273;28;20205;-69
2022/01/20 11:28:08;;;;;;;0.00;0.00;;;;;;;;;;5040683;28;20188;-69
2022/01/20 11:30:39;;;;;;;0.63;0.20;;;;;;;;;;5036672;28;20671;-69
2022/01/20 11:33:09;;;;;;;0.00;0.00;;;;;;;;;;5040788;28;20223;-70
2022/01/20 11:35:37;;;;;;;0.00;0.00;;;;;;;;;;5037108;28;20193;-70
2022/01/20 11:38:05;;;;;;;0.00;0.00;;;;;;;;;;5043977;28;20260;-68
2022/01/20 11:40:32;;;;;;;0.00;0.00;;;;;;;;;;5046488;28;20963;-70
2022/01/20 11:43:03;;;;;;;0.00;0.00;;;;;;;;;;5042292;28;20657;-68
2022/01/20 11:45:33;;;;;;;1.13;0.20;;;;;;;;;;5040587;28;20198;-68
2022/01/20 11:48:01;;;;;;;0.00;0.00;;;;;;;;;;5041086;28;20265;-71
2022/01/20 11:50:29;;;;;;;1.07;0.23;;;;;;;;;;5039311;28;20206;-70
2022/01/20 11:52:57;;;;;;;1.40;0.70;;;;;;;;;;5040900;28;20227;-70
2022/01/20 11:55:24;;;;;;;0.40;0.20;;;;;;;;;;5040929;28;20203;-71
2022/01/20 11:57:52;;;;;;;0.00;0.00;;;;;;;;;;5037738;28;20291;-68
2022/01/20 12:00:22;;;;;;;0.30;0.20;;;;;;;;;;5041351;28;20192;-70
2022/01/20 12:02:50;;;;;;;0.50;0.30;;;;;;;;;;5042323;28;20582;-70
2022/01/20 12:05:19;;;;;;;0.00;0.00;;;;;;;;;;5039914;28;20192;-70
2022/01/20 12:07:49;;;;;;;9.00;0.70;;;;;;;;;;5038187;28;20200;-69
2022/01/20 12:10:17;;;;;;;0.00;0.00;;;;;;;;;;5040062;28;21752;-69
2022/01/20 12:12:45;;;;;;;0.00;0.00;;;;;;;;;;5037965;28;20771;-69
2022/01/20 12:15:14;;;;;;;0.20;0.13;;;;;;;;;;5040266;28;20249;-69
2022/01/20 12:17:49;;;;;;;0.10;0.10;;;;;;;;;;5039884;28;20332;-69
2022/01/20 12:20:17;;;;;;;0.27;0.13;;;;;;;;;;5040086;28;20239;-70
2022/01/20 12:22:45;;;;;;;0.47;0.47;;;;;;;;;;5037750;28;20691;-69
2022/01/20 12:25:18;;;;;;;1.03;0.40;;;;;;;;;;5042734;28;20232;-68
2022/01/20 12:27:46;;;;;;;3.67;0.60;;;;;;;;;;5042609;28;20215;-68
2022/01/20 12:30:18;;;;;;;3.43;0.47;;;;;;;;;;5048095;28;20556;-68
2022/01/20 12:32:55;;;;;;;4.23;0.63;;;;;;;;;;5061664;28;20224;-69
2022/01/20 12:35:23;;;;;;;2.73;0.30;;;;;;;;;;5046573;28;20191;-69
2022/01/20 12:37:52;;;;;;;0.10;0.03;;;;;;;;;;5033919;28;20597;-71
2022/01/20 12:40:22;;;;;;;0.00;0.00;;;;;;;;;;5033288;28;20208;-70
2022/01/20 12:42:50;;;;;;;1.83;0.70;;;;;;;;;;5035965;28;20592;-70
2022/01/20 12:48:19;;;;;;;2.23;0.37;;;;;;;;;;5048687;28;20695;-69
2022/01/20 12:50:59;;;;;;;0.63;0.00;;;;;;;;;;5046609;28;20677;-70
2022/01/20 12:53:35;;;;;;;1.90;0.77;;;;;;;;;;5039834;28;20206;-69
2022/01/20 12:56:04;;;;;;;0.00;0.00;;;;;;;;;;5040930;28;20204;-69
2022/01/20 12:58:31;;;;;;;0.00;0.00;;;;;;;;;;5040579;28;20197;-69
2022/01/20 13:01:03;;;;;;;1.40;0.43;;;;;;;;;;5037260;28;20204;-70
2022/01/20 13:03:40;;;;;;;0.57;0.30;;;;;;;;;;5046338;28;20567;-70
2022/01/20 13:06:09;;;;;;;0.00;0.00;;;;;;;;;;5039081;28;20196;-69
2022/01/20 13:08:40;;;;;;;1.40;1.10;;;;;;;;;;5049719;28;20708;-69
2022/01/20 13:11:13;;;;;;;0.23;0.23;;;;;;;;;;5049580;28;20187;-69
2022/01/20 13:13:40;;;;;;;0.17;0.00;;;;;;;;;;5046816;28;20195;-69
2022/01/20 13:16:11;;;;;;;0.00;0.00;;;;;;;;;;5050799;28;20199;-69
2022/01/20 13:18:39;;;;;;;0.30;0.30;;;;;;;;;;5048456;28;20191;-70
2022/01/20 13:21:08;;;;;;;0.00;0.00;;;;;;;;;;5044739;28;20664;-69
2022/01/20 13:23:57;;;;;;;0.70;0.57;;;;;;;;;;5030427;28;20218;-69
2022/01/20 13:26:27;;;;;;;0.43;0.23;;;;;;;;;;5033794;28;20857;-69
2022/01/20 13:29:01;;;;;;;0.10;0.10;;;;;;;;;;5046113;28;20294;-69
2022/01/20 13:31:29;;;;;;;1.70;0.20;;;;;;;;;;5035900;28;20199;-69
2022/01/20 13:33:59;;;;;;;0.00;0.00;;;;;;;;;;5049337;28;20204;-70
2022/01/20 13:36:37;;;;;;;0.10;0.10;;;;;;;;;;5048301;28;20196;-70
2022/01/20 13:39:05;;;;;;;0.10;0.10;;;;;;;;;;5034492;28;20204;-69
2022/01/20 13:41:34;;;;;;;0.30;0.10;;;;;;;;;;5035000;28;20196;-70
2022/01/20 13:46:48;;;;;;;1.50;0.40;;;;;;;;;;5046618;28;20288;-69
2022/01/20 13:49:17;;;;;;;1.50;0.10;;;;;;;;;;5038136;28;20299;-70
2022/01/20 13:51:44;;;;;;;0.20;0.20;;;;;;;;;;5038202;28;20230;-69
2022/01/20 13:54:12;;;;;;;0.00;0.00;;;;;;;;;;5036365;28;20215;-69
2022/01/20 13:56:51;;;;;;;0.10;0.10;;;;;;;;;;5030237;28;20563;-68
2022/01/20 13:59:18;;;;;;;0.00;0.00;;;;;;;;;;5029439;28;20224;-69
2022/01/20 14:01:46;;;;;;;2.90;0.20;;;;;;;;;;5039989;28;20593;-69
2022/01/20 14:04:13;;;;;;;0.00;0.00;;;;;;;;;;5049732;28;20191;-70
2022/01/20 14:06:40;;;;;;;0.20;0.20;;;;;;;;;;5046434;28;20209;-70
2022/01/20 14:09:08;;;;;;;0.00;0.00;;;;;;;;;;5029760;28;20284;-69
2022/01/20 14:11:35;;;;;;;0.00;0.00;;;;;;;;;;5042554;28;20611;-69
2022/01/20 14:14:05;;;;;;;0.00;0.00;;;;;;;;;;5047460;28;20198;-70
2022/01/20 14:16:34;;;;;;;0.43;0.20;;;;;;;;;;5046585;28;20204;-69
2022/01/20 14:19:01;;;;;;;0.87;0.73;;;;;;;;;;5048712;28;20677;-70
2022/01/20 14:21:32;;;;;;;0.17;0.17;;;;;;;;;;5046993;28;20576;-70
2022/01/20 14:24:00;;;;;;;0.10;0.10;;;;;;;;;;5045306;28;20188;-70
2022/01/20 14:26:30;;;;;;;0.00;0.00;;;;;;;;;;5039777;28;20238;-70
2022/01/20 14:28:58;;;;;;;0.93;0.27;;;;;;;;;;5040241;28;20188;-69
2022/01/20 14:31:27;;;;;;;2.13;0.50;;;;;;;;;;5042762;28;20219;-67
2022/01/20 14:33:54;;;;;;;0.00;0.00;;;;;;;;;;5048581;28;20298;-68
2022/01/20 14:36:22;;;;;;;2.07;0.50;;;;;;;;;;5047125;28;20199;-69
2022/01/20 14:38:49;;;;;;;0.60;0.17;;;;;;;;;;5043800;28;20290;-69
2022/01/20 14:41:16;;;;;;;1.30;0.53;;;;;;;;;;5035703;28;20688;-69
2022/01/20 14:43:44;;;;;;;0.03;0.03;;;;;;;;;;5045327;28;20554;-70
2022/01/20 14:46:11;;;;;;;1.97;1.23;;;;;;;;;;5048714;28;20210;-69
2022/01/20 14:48:41;;;;;;;0.00;0.00;;;;;;;;;;5049462;28;20196;-69
2022/01/20 14:51:08;;;;;;;0.10;0.07;;;;;;;;;;5046640;28;20204;-69
2022/01/20 14:53:36;;;;;;;0.20;0.10;;;;;;;;;;5043475;28;20245;-69
2022/01/20 14:56:04;;;;;;;0.00;0.00;;;;;;;;;;5032911;28;20203;-69
2022/01/20 14:58:31;;;;;;;3.07;0.57;;;;;;;;;;5037021;28;20203;-69
2022/01/20 15:00:58;;;;;;;0.00;0.00;;;;;;;;;;5039959;28;20196;-69
2022/01/20 15:03:26;;;;;;;1.17;0.47;;;;;;;;;;5041780;28;20192;-70
2022/01/20 15:05:55;;;;;;;0.20;0.20;;;;;;;;;;5049004;28;20242;-67
2022/01/20 15:08:22;;;;;;;0.10;0.10;;;;;;;;;;5044028;28;20661;-70
2022/01/20 15:10:50;;;;;;;0.00;0.00;;;;;;;;;;5031964;28;20215;-68
2022/01/20 15:13:18;;;;;;;0.00;0.00;;;;;;;;;;5039916;28;20238;-70
2022/01/20 15:15:45;;;;;;;0.00;0.00;;;;;;;;;;5047570;28;20282;-68
2022/01/20 15:18:12;;;;;;;0.30;0.30;;;;;;;;;;5031809;28;20650;-70
2022/01/20 15:20:40;;;;;;;0.00;0.00;;;;;;;;;;5053852;28;20714;-69
2022/01/20 15:23:09;;;;;;;0.23;0.10;;;;;;;;;;5041925;28;20203;-70
2022/01/20 15:25:36;;;;;;;0.00;0.00;;;;;;;;;;5036286;28;20253;-70
2022/01/20 15:28:04;;;;;;;0.20;0.20;;;;;;;;;;5038077;28;20200;-69
2022/01/20 15:30:31;;;;;;;0.87;0.43;;;;;;;;;;5048117;28;20695;-72
2022/01/20 15:32:58;;;;;;;0.27;0.00;;;;;;;;;;5036371;28;20215;-71
2022/01/20 15:35:26;;;;;;;0.00;0.00;;;;;;;;;;5045360;28;20227;-71
2022/01/20 15:37:53;;;;;;;0.83;0.40;;;;;;;;;;5028336;28;20755;-71
2022/01/20 15:40:22;;;;;;;3.37;1.60;;;;;;;;;;5057886;28;20675;-71
2022/01/20 15:42:49;;;;;;;2.73;0.63;;;;;;;;;;5049834;28;20191;-71
2022/01/20 15:45:17;;;;;;;0.00;0.00;;;;;;;;;;5045800;28;20204;-71
2022/01/20 15:47:44;;;;;;;24.33;1.77;;;;;;;;;;5045258;28;20196;-69
2022/01/20 15:50:12;;;;;;;0.60;0.27;;;;;;;;;;5047146;28;20313;-70
2022/01/20 15:52:40;;;;;;;0.10;0.10;;;;;;;;;;5037471;28;20233;-69
2022/01/20 15:55:08;;;;;;;1.50;1.33;;;;;;;;;;5041632;28;20195;-72